sensor_id;sensor_type;location;lat;lon;timestamp;P1;durP1;ratioP1;P2;durP2;ratioP2
26082;SDS011;13848;49.018;12.078;2022-08-19T00:01:55;14.00;;;12.60;;
26082;SDS011;13848;49.018;12.078;2022-08-19T00:04:24;12.75;;;11.60;;
26082;SDS011;13848;49.018;12.078;2022-08-19T00:06:53;13.95;;;12.55;;
26082;SDS011;13848;49.018;12.078;2022-08-19T00:09:21;14.80;;;13.30;;
26082;SDS011;13848;49.018;12.078;2022-08-19T00:11:48;14.60;;;13.15;;
26082;SDS011;13848;49.018;12.078;2022-08-19T00:14:15;14.98;;;13.48;;
26082;SDS011;13848;49.018;12.078;2022-08-19T00:16:43;14.65;;;13.18;;
26082;SDS011;13848;49.018;12.078;2022-08-19T00:19:10;14.55;;;13.15;;
26082;SDS011;13848;49.018;12.078;2022-08-19T00:21:36;16.15;;;13.02;;
26082;SDS011;13848;49.018;12.078;2022-08-19T00:24:04;15.38;;;12.25;;
26082;SDS011;13848;49.018;12.078;2022-08-19T00:26:30;13.18;;;11.95;;
26082;SDS011;13848;49.018;12.078;2022-08-19T00:28:56;14.35;;;12.88;;
26082;SDS011;13848;49.018;12.078;2022-08-19T00:31:22;13.68;;;12.27;;
26082;SDS011;13848;49.018;12.078;2022-08-19T00:33:48;13.73;;;12.32;;
26082;SDS011;13848;49.018;12.078;2022-08-19T00:36:13;15.32;;;13.38;;
26082;SDS011;13848;49.018;12.078;2022-08-19T00:38:39;13.18;;;11.88;;
26082;SDS011;13848;49.018;12.078;2022-08-19T00:41:07;13.10;;;12.00;;
26082;SDS011;13848;49.018;12.078;2022-08-19T00:43:33;13.52;;;12.23;;
26082;SDS011;13848;49.018;12.078;2022-08-19T00:45:59;14.25;;;12.77;;
26082;SDS011;13848;49.018;12.078;2022-08-19T00:48:25;14.38;;;12.98;;
26082;SDS011;13848;49.018;12.078;2022-08-19T00:50:51;14.32;;;12.93;;
26082;SDS011;13848;49.018;12.078;2022-08-19T00:53:20;14.10;;;12.70;;
26082;SDS011;13848;49.018;12.078;2022-08-19T00:55:50;14.23;;;12.93;;
26082;SDS011;13848;49.018;12.078;2022-08-19T00:58:19;16.90;;;13.00;;
26082;SDS011;13848;49.018;12.078;2022-08-19T01:00:47;13.63;;;12.35;;
26082;SDS011;13848;49.018;12.078;2022-08-19T01:03:17;13.80;;;12.50;;
26082;SDS011;13848;49.018;12.078;2022-08-19T01:05:45;14.65;;;13.35;;
26082;SDS011;13848;49.018;12.078;2022-08-19T01:08:14;14.10;;;12.70;;
26082;SDS011;13848;49.018;12.078;2022-08-19T01:10:43;14.10;;;12.70;;
26082;SDS011;13848;49.018;12.078;2022-08-19T01:13:12;13.27;;;12.05;;
26082;SDS011;13848;49.018;12.078;2022-08-19T01:15:42;14.38;;;13.00;;
26082;SDS011;13848;49.018;12.078;2022-08-19T01:18:11;14.30;;;12.93;;
26082;SDS011;13848;49.018;12.078;2022-08-19T01:20:40;14.85;;;13.27;;
26082;SDS011;13848;49.018;12.078;2022-08-19T01:23:08;14.93;;;13.52;;
26082;SDS011;13848;49.018;12.078;2022-08-19T01:25:38;14.80;;;13.32;;
26082;SDS011;13848;49.018;12.078;2022-08-19T01:28:06;13.95;;;12.48;;
26082;SDS011;13848;49.018;12.078;2022-08-19T01:30:34;14.40;;;13.00;;
26082;SDS011;13848;49.018;12.078;2022-08-19T01:33:00;15.10;;;13.60;;
26082;SDS011;13848;49.018;12.078;2022-08-19T01:35:27;13.40;;;12.10;;
26082;SDS011;13848;49.018;12.078;2022-08-19T01:37:55;14.77;;;13.27;;
26082;SDS011;13848;49.018;12.078;2022-08-19T01:40:26;13.95;;;12.52;;
26082;SDS011;13848;49.018;12.078;2022-08-19T01:42:53;14.82;;;13.52;;
26082;SDS011;13848;49.018;12.078;2022-08-19T01:45:20;15.07;;;13.68;;
26082;SDS011;13848;49.018;12.078;2022-08-19T01:47:48;15.73;;;12.60;;
26082;SDS011;13848;49.018;12.078;2022-08-19T01:50:14;14.88;;;13.38;;
26082;SDS011;13848;49.018;12.078;2022-08-19T01:52:41;14.23;;;12.90;;
26082;SDS011;13848;49.018;12.078;2022-08-19T01:55:10;16.10;;;14.60;;
26082;SDS011;13848;49.018;12.078;2022-08-19T01:57:39;14.43;;;13.13;;
26082;SDS011;13848;49.018;12.078;2022-08-19T02:00:09;15.00;;;13.50;;
26082;SDS011;13848;49.018;12.078;2022-08-19T02:02:37;17.30;;;14.75;;
26082;SDS011;13848;49.018;12.078;2022-08-19T02:05:03;16.80;;;15.13;;
26082;SDS011;13848;49.018;12.078;2022-08-19T02:07:30;16.10;;;14.60;;
26082;SDS011;13848;49.018;12.078;2022-08-19T02:09:56;16.30;;;14.80;;
26082;SDS011;13848;49.018;12.078;2022-08-19T02:12:22;15.73;;;14.18;;
26082;SDS011;13848;49.018;12.078;2022-08-19T02:14:49;15.02;;;13.60;;
26082;SDS011;13848;49.018;12.078;2022-08-19T02:17:15;15.30;;;13.80;;
26082;SDS011;13848;49.018;12.078;2022-08-19T02:19:41;17.27;;;14.63;;
26082;SDS011;13848;49.018;12.078;2022-08-19T02:22:06;15.63;;;14.02;;
26082;SDS011;13848;49.018;12.078;2022-08-19T02:24:32;16.60;;;14.90;;
26082;SDS011;13848;49.018;12.078;2022-08-19T02:26:58;15.43;;;13.93;;
26082;SDS011;13848;49.018;12.078;2022-08-19T02:29:24;14.50;;;13.10;;
26082;SDS011;13848;49.018;12.078;2022-08-19T02:31:51;15.75;;;14.15;;
26082;SDS011;13848;49.018;12.078;2022-08-19T02:34:17;15.25;;;13.75;;
26082;SDS011;13848;49.018;12.078;2022-08-19T02:36:43;16.25;;;14.60;;
26082;SDS011;13848;49.018;12.078;2022-08-19T02:39:09;16.20;;;14.55;;
26082;SDS011;13848;49.018;12.078;2022-08-19T02:41:35;15.60;;;14.02;;
26082;SDS011;13848;49.018;12.078;2022-08-19T02:44:02;15.73;;;14.27;;
26082;SDS011;13848;49.018;12.078;2022-08-19T02:46:29;15.70;;;14.18;;
26082;SDS011;13848;49.018;12.078;2022-08-19T02:48:59;15.18;;;13.77;;
26082;SDS011;13848;49.018;12.078;2022-08-19T02:51:27;15.45;;;13.85;;
26082;SDS011;13848;49.018;12.078;2022-08-19T02:53:54;14.32;;;13.02;;
26082;SDS011;13848;49.018;12.078;2022-08-19T02:56:21;13.77;;;12.38;;
26082;SDS011;13848;49.018;12.078;2022-08-19T02:58:47;21.25;;;13.02;;
26082;SDS011;13848;49.018;12.078;2022-08-19T03:01:19;14.00;;;12.60;;
26082;SDS011;13848;49.018;12.078;2022-08-19T03:03:46;14.25;;;12.95;;
26082;SDS011;13848;49.018;12.078;2022-08-19T03:06:14;14.25;;;12.63;;
26082;SDS011;13848;49.018;12.078;2022-08-19T03:08:41;17.00;;;13.02;;
26082;SDS011;13848;49.018;12.078;2022-08-19T03:11:12;14.85;;;13.13;;
26082;SDS011;13848;49.018;12.078;2022-08-19T03:13:39;14.65;;;13.10;;
26082;SDS011;13848;49.018;12.078;2022-08-19T03:16:05;14.40;;;12.73;;
26082;SDS011;13848;49.018;12.078;2022-08-19T03:18:31;14.70;;;13.30;;
26082;SDS011;13848;49.018;12.078;2022-08-19T03:20:57;14.60;;;13.10;;
26082;SDS011;13848;49.018;12.078;2022-08-19T03:23:24;14.18;;;12.77;;
26082;SDS011;13848;49.018;12.078;2022-08-19T03:25:51;14.07;;;12.52;;
26082;SDS011;13848;49.018;12.078;2022-08-19T03:28:18;14.35;;;12.98;;
26082;SDS011;13848;49.018;12.078;2022-08-19T03:30:54;14.57;;;13.18;;
26082;SDS011;13848;49.018;12.078;2022-08-19T03:33:22;14.13;;;12.82;;
26082;SDS011;13848;49.018;12.078;2022-08-19T03:35:58;13.90;;;12.50;;
26082;SDS011;13848;49.018;12.078;2022-08-19T03:38:27;13.18;;;11.88;;
26082;SDS011;13848;49.018;12.078;2022-08-19T03:40:53;13.48;;;12.27;;
26082;SDS011;13848;49.018;12.078;2022-08-19T03:43:19;14.88;;;13.57;;
26082;SDS011;13848;49.018;12.078;2022-08-19T03:45:45;13.32;;;12.02;;
26082;SDS011;13848;49.018;12.078;2022-08-19T03:48:11;13.52;;;12.23;;
26082;SDS011;13848;49.018;12.078;2022-08-19T03:50:38;13.93;;;12.40;;
26082;SDS011;13848;49.018;12.078;2022-08-19T03:53:04;13.57;;;12.10;;
26082;SDS011;13848;49.018;12.078;2022-08-19T03:55:31;13.13;;;11.93;;
26082;SDS011;13848;49.018;12.078;2022-08-19T03:57:57;13.75;;;12.50;;
26082;SDS011;13848;49.018;12.078;2022-08-19T04:00:23;13.82;;;12.50;;
26082;SDS011;13848;49.018;12.078;2022-08-19T04:02:49;13.07;;;11.88;;
26082;SDS011;13848;49.018;12.078;2022-08-19T04:05:15;13.75;;;12.40;;
26082;SDS011;13848;49.018;12.078;2022-08-19T04:07:41;13.82;;;12.55;;
26082;SDS011;13848;49.018;12.078;2022-08-19T04:10:07;14.60;;;13.10;;
26082;SDS011;13848;49.018;12.078;2022-08-19T04:12:35;13.30;;;12.00;;
26082;SDS011;13848;49.018;12.078;2022-08-19T04:15:00;13.35;;;11.93;;
26082;SDS011;13848;49.018;12.078;2022-08-19T04:17:26;13.35;;;12.02;;
26082;SDS011;13848;49.018;12.078;2022-08-19T04:19:52;13.02;;;11.73;;
26082;SDS011;13848;49.018;12.078;2022-08-19T04:22:18;13.88;;;12.57;;
26082;SDS011;13848;49.018;12.078;2022-08-19T04:24:44;13.57;;;12.00;;
26082;SDS011;13848;49.018;12.078;2022-08-19T04:27:10;13.68;;;12.48;;
26082;SDS011;13848;49.018;12.078;2022-08-19T04:29:37;13.45;;;12.15;;
26082;SDS011;13848;49.018;12.078;2022-08-19T04:32:03;14.13;;;12.57;;
26082;SDS011;13848;49.018;12.078;2022-08-19T04:34:29;16.80;;;12.52;;
26082;SDS011;13848;49.018;12.078;2022-08-19T04:36:56;14.45;;;12.95;;
26082;SDS011;13848;49.018;12.078;2022-08-19T04:39:24;14.30;;;13.00;;
26082;SDS011;13848;49.018;12.078;2022-08-19T04:41:51;14.00;;;12.43;;
26082;SDS011;13848;49.018;12.078;2022-08-19T04:44:17;14.35;;;12.00;;
26082;SDS011;13848;49.018;12.078;2022-08-19T04:46:45;13.50;;;12.15;;
26082;SDS011;13848;49.018;12.078;2022-08-19T04:49:11;13.18;;;11.98;;
26082;SDS011;13848;49.018;12.078;2022-08-19T04:51:39;13.27;;;12.07;;
26082;SDS011;13848;49.018;12.078;2022-08-19T04:54:06;12.27;;;11.00;;
26082;SDS011;13848;49.018;12.078;2022-08-19T04:56:32;14.10;;;12.70;;
26082;SDS011;13848;49.018;12.078;2022-08-19T04:58:58;14.35;;;12.85;;
26082;SDS011;13848;49.018;12.078;2022-08-19T05:01:25;14.63;;;13.13;;
26082;SDS011;13848;49.018;12.078;2022-08-19T05:03:54;14.20;;;12.70;;
26082;SDS011;13848;49.018;12.078;2022-08-19T05:06:20;14.27;;;12.77;;
26082;SDS011;13848;49.018;12.078;2022-08-19T05:08:48;14.30;;;12.82;;
26082;SDS011;13848;49.018;12.078;2022-08-19T05:11:15;14.40;;;12.77;;
26082;SDS011;13848;49.018;12.078;2022-08-19T05:13:42;13.93;;;12.52;;
26082;SDS011;13848;49.018;12.078;2022-08-19T05:16:10;13.98;;;12.57;;
26082;SDS011;13848;49.018;12.078;2022-08-19T05:18:36;15.27;;;13.75;;
26082;SDS011;13848;49.018;12.078;2022-08-19T05:21:06;14.60;;;13.20;;
26082;SDS011;13848;49.018;12.078;2022-08-19T05:23:32;13.45;;;12.25;;
26082;SDS011;13848;49.018;12.078;2022-08-19T05:25:58;13.38;;;12.02;;
26082;SDS011;13848;49.018;12.078;2022-08-19T05:28:25;12.98;;;11.77;;
26082;SDS011;13848;49.018;12.078;2022-08-19T05:30:51;12.43;;;11.20;;
26082;SDS011;13848;49.018;12.078;2022-08-19T05:33:17;12.25;;;11.02;;
26082;SDS011;13848;49.018;12.078;2022-08-19T05:35:43;12.15;;;10.73;;
26082;SDS011;13848;49.018;12.078;2022-08-19T05:38:11;13.00;;;11.80;;
26082;SDS011;13848;49.018;12.078;2022-08-19T05:40:37;13.18;;;11.90;;
26082;SDS011;13848;49.018;12.078;2022-08-19T05:43:04;12.25;;;11.00;;
26082;SDS011;13848;49.018;12.078;2022-08-19T05:45:31;11.30;;;10.10;;
26082;SDS011;13848;49.018;12.078;2022-08-19T05:47:57;13.10;;;10.70;;
26082;SDS011;13848;49.018;12.078;2022-08-19T05:50:23;13.05;;;10.93;;
26082;SDS011;13848;49.018;12.078;2022-08-19T05:52:48;14.27;;;10.93;;
26082;SDS011;13848;49.018;12.078;2022-08-19T05:55:16;11.40;;;10.40;;
26082;SDS011;13848;49.018;12.078;2022-08-19T05:57:42;12.35;;;11.10;;
26082;SDS011;13848;49.018;12.078;2022-08-19T06:00:08;13.30;;;11.85;;
26082;SDS011;13848;49.018;12.078;2022-08-19T06:02:35;12.90;;;11.57;;
26082;SDS011;13848;49.018;12.078;2022-08-19T06:05:02;15.85;;;11.77;;
26082;SDS011;13848;49.018;12.078;2022-08-19T06:07:29;14.38;;;11.27;;
26082;SDS011;13848;49.018;12.078;2022-08-19T06:09:55;12.73;;;11.40;;
26082;SDS011;13848;49.018;12.078;2022-08-19T06:12:22;12.07;;;10.85;;
26082;SDS011;13848;49.018;12.078;2022-08-19T06:14:48;13.27;;;11.90;;
26082;SDS011;13848;49.018;12.078;2022-08-19T06:17:14;12.45;;;11.15;;
26082;SDS011;13848;49.018;12.078;2022-08-19T06:19:40;13.20;;;11.80;;
26082;SDS011;13848;49.018;12.078;2022-08-19T06:22:06;12.95;;;11.65;;
26082;SDS011;13848;49.018;12.078;2022-08-19T06:24:32;11.55;;;10.30;;
26082;SDS011;13848;49.018;12.078;2022-08-19T06:26:58;12.20;;;11.10;;
26082;SDS011;13848;49.018;12.078;2022-08-19T06:29:26;12.07;;;10.88;;
26082;SDS011;13848;49.018;12.078;2022-08-19T06:31:55;13.00;;;11.70;;
26082;SDS011;13848;49.018;12.078;2022-08-19T06:34:22;15.25;;;13.75;;
26082;SDS011;13848;49.018;12.078;2022-08-19T06:36:50;13.25;;;11.95;;
26082;SDS011;13848;49.018;12.078;2022-08-19T06:39:18;12.75;;;11.45;;
26082;SDS011;13848;49.018;12.078;2022-08-19T06:41:45;13.63;;;12.32;;
26082;SDS011;13848;49.018;12.078;2022-08-19T06:44:14;13.15;;;11.77;;
26082;SDS011;13848;49.018;12.078;2022-08-19T06:46:42;15.52;;;12.23;;
26082;SDS011;13848;49.018;12.078;2022-08-19T06:49:08;13.70;;;12.13;;
26082;SDS011;13848;49.018;12.078;2022-08-19T06:51:34;17.45;;;15.38;;
26082;SDS011;13848;49.018;12.078;2022-08-19T06:54:00;16.25;;;14.77;;
26082;SDS011;13848;49.018;12.078;2022-08-19T06:56:27;14.88;;;13.45;;
26082;SDS011;13848;49.018;12.078;2022-08-19T06:58:55;14.88;;;13.48;;
26082;SDS011;13848;49.018;12.078;2022-08-19T07:01:21;15.10;;;13.68;;
26082;SDS011;13848;49.018;12.078;2022-08-19T07:03:48;15.15;;;13.65;;
26082;SDS011;13848;49.018;12.078;2022-08-19T07:06:15;18.85;;;16.65;;
26082;SDS011;13848;49.018;12.078;2022-08-19T07:08:42;14.88;;;13.45;;
26082;SDS011;13848;49.018;12.078;2022-08-19T07:11:10;14.13;;;12.70;;
26082;SDS011;13848;49.018;12.078;2022-08-19T07:13:37;13.90;;;12.50;;
26082;SDS011;13848;49.018;12.078;2022-08-19T07:16:03;15.82;;;13.40;;
26082;SDS011;13848;49.018;12.078;2022-08-19T07:18:30;17.88;;;15.63;;
26082;SDS011;13848;49.018;12.078;2022-08-19T07:21:03;28.63;;;21.27;;
26082;SDS011;13848;49.018;12.078;2022-08-19T07:23:30;16.60;;;14.75;;
26082;SDS011;13848;49.018;12.078;2022-08-19T07:25:56;15.25;;;13.75;;
26082;SDS011;13848;49.018;12.078;2022-08-19T07:28:22;16.50;;;14.77;;
26082;SDS011;13848;49.018;12.078;2022-08-19T07:30:47;17.33;;;15.52;;
26082;SDS011;13848;49.018;12.078;2022-08-19T07:33:13;13.65;;;12.27;;
26082;SDS011;13848;49.018;12.078;2022-08-19T07:35:39;15.52;;;14.05;;
26082;SDS011;13848;49.018;12.078;2022-08-19T07:38:06;18.38;;;16.38;;
26082;SDS011;13848;49.018;12.078;2022-08-19T07:40:32;13.90;;;12.55;;
26082;SDS011;13848;49.018;12.078;2022-08-19T07:42:58;14.00;;;12.50;;
26082;SDS011;13848;49.018;12.078;2022-08-19T07:45:24;15.95;;;14.35;;
26082;SDS011;13848;49.018;12.078;2022-08-19T07:47:50;14.20;;;12.70;;
26082;SDS011;13848;49.018;12.078;2022-08-19T07:50:17;14.68;;;13.27;;
26082;SDS011;13848;49.018;12.078;2022-08-19T07:52:43;14.00;;;12.45;;
26082;SDS011;13848;49.018;12.078;2022-08-19T07:55:11;13.90;;;12.70;;
26082;SDS011;13848;49.018;12.078;2022-08-19T07:57:37;20.63;;;12.90;;
26082;SDS011;13848;49.018;12.078;2022-08-19T08:00:03;13.15;;;11.85;;
26082;SDS011;13848;49.018;12.078;2022-08-19T08:02:30;13.73;;;12.07;;
26082;SDS011;13848;49.018;12.078;2022-08-19T08:04:56;13.93;;;12.60;;
26082;SDS011;13848;49.018;12.078;2022-08-19T08:07:22;14.70;;;13.40;;
26082;SDS011;13848;49.018;12.078;2022-08-19T08:09:48;14.07;;;12.77;;
26082;SDS011;13848;49.018;12.078;2022-08-19T08:12:17;13.70;;;12.40;;
26082;SDS011;13848;49.018;12.078;2022-08-19T08:14:45;14.00;;;12.70;;
26082;SDS011;13848;49.018;12.078;2022-08-19T08:17:12;17.08;;;15.32;;
26082;SDS011;13848;49.018;12.078;2022-08-19T08:19:40;17.75;;;15.20;;
26082;SDS011;13848;49.018;12.078;2022-08-19T08:22:07;17.15;;;14.73;;
26082;SDS011;13848;49.018;12.078;2022-08-19T08:24:34;13.63;;;12.30;;
26082;SDS011;13848;49.018;12.078;2022-08-19T08:27:00;13.55;;;12.25;;
26082;SDS011;13848;49.018;12.078;2022-08-19T08:29:28;15.32;;;11.90;;
26082;SDS011;13848;49.018;12.078;2022-08-19T08:31:55;13.57;;;12.27;;
26082;SDS011;13848;49.018;12.078;2022-08-19T08:34:22;14.55;;;13.07;;
26082;SDS011;13848;49.018;12.078;2022-08-19T08:36:48;14.88;;;13.48;;
26082;SDS011;13848;49.018;12.078;2022-08-19T08:39:15;13.82;;;12.60;;
26082;SDS011;13848;49.018;12.078;2022-08-19T08:41:44;13.35;;;12.05;;
26082;SDS011;13848;49.018;12.078;2022-08-19T08:44:20;11.88;;;10.68;;
26082;SDS011;13848;49.018;12.078;2022-08-19T08:46:50;13.90;;;12.50;;
26082;SDS011;13848;49.018;12.078;2022-08-19T08:49:26;12.65;;;11.35;;
26082;SDS011;13848;49.018;12.078;2022-08-19T08:51:58;12.07;;;10.98;;
26082;SDS011;13848;49.018;12.078;2022-08-19T08:56:57;12.43;;;11.23;;
26082;SDS011;13848;49.018;12.078;2022-08-19T08:59:24;11.52;;;10.50;;
26082;SDS011;13848;49.018;12.078;2022-08-19T09:01:54;11.68;;;10.68;;
26082;SDS011;13848;49.018;12.078;2022-08-19T09:04:20;12.70;;;11.50;;
26082;SDS011;13848;49.018;12.078;2022-08-19T09:06:48;13.00;;;10.40;;
26082;SDS011;13848;49.018;12.078;2022-08-19T09:09:22;12.70;;;11.40;;
26082;SDS011;13848;49.018;12.078;2022-08-19T09:11:55;11.38;;;10.40;;
26082;SDS011;13848;49.018;12.078;2022-08-19T09:14:32;13.18;;;10.63;;
26082;SDS011;13848;49.018;12.078;2022-08-19T09:17:02;11.48;;;10.27;;
26082;SDS011;13848;49.018;12.078;2022-08-19T09:19:29;12.02;;;10.85;;
26082;SDS011;13848;49.018;12.078;2022-08-19T09:21:55;11.48;;;10.35;;
26082;SDS011;13848;49.018;12.078;2022-08-19T09:24:21;11.52;;;9.63;;
26082;SDS011;13848;49.018;12.078;2022-08-19T09:26:47;12.10;;;10.57;;
26082;SDS011;13848;49.018;12.078;2022-08-19T09:29:13;11.73;;;10.38;;
26082;SDS011;13848;49.018;12.078;2022-08-19T09:31:39;12.25;;;11.05;;
26082;SDS011;13848;49.018;12.078;2022-08-19T09:34:06;12.00;;;10.73;;
26082;SDS011;13848;49.018;12.078;2022-08-19T09:36:32;11.00;;;9.93;;
26082;SDS011;13848;49.018;12.078;2022-08-19T09:38:59;11.10;;;10.00;;
26082;SDS011;13848;49.018;12.078;2022-08-19T09:41:25;11.93;;;10.50;;
26082;SDS011;13848;49.018;12.078;2022-08-19T09:43:52;11.88;;;10.32;;
26082;SDS011;13848;49.018;12.078;2022-08-19T09:46:20;12.38;;;11.18;;
26082;SDS011;13848;49.018;12.078;2022-08-19T09:48:46;12.52;;;9.90;;
26082;SDS011;13848;49.018;12.078;2022-08-19T09:51:14;10.30;;;9.30;;
26082;SDS011;13848;49.018;12.078;2022-08-19T09:53:42;11.27;;;10.18;;
26082;SDS011;13848;49.018;12.078;2022-08-19T09:56:10;10.73;;;8.95;;
26082;SDS011;13848;49.018;12.078;2022-08-19T09:58:37;11.73;;;9.80;;
26082;SDS011;13848;49.018;12.078;2022-08-19T10:01:04;10.07;;;9.07;;
26082;SDS011;13848;49.018;12.078;2022-08-19T10:03:32;10.73;;;8.90;;
26082;SDS011;13848;49.018;12.078;2022-08-19T10:05:59;8.88;;;8.07;;
26082;SDS011;13848;49.018;12.078;2022-08-19T10:08:29;8.88;;;7.97;;
26082;SDS011;13848;49.018;12.078;2022-08-19T10:10:56;9.50;;;8.50;;
26082;SDS011;13848;49.018;12.078;2022-08-19T10:13:24;9.85;;;8.48;;
26082;SDS011;13848;49.018;12.078;2022-08-19T10:15:51;9.45;;;8.60;;
26082;SDS011;13848;49.018;12.078;2022-08-19T10:18:19;9.45;;;8.65;;
26082;SDS011;13848;49.018;12.078;2022-08-19T10:20:46;8.98;;;8.05;;
26082;SDS011;13848;49.018;12.078;2022-08-19T10:23:13;8.68;;;7.88;;
26082;SDS011;13848;49.018;12.078;2022-08-19T10:25:41;9.02;;;8.15;;
26082;SDS011;13848;49.018;12.078;2022-08-19T10:28:07;9.05;;;8.15;;
26082;SDS011;13848;49.018;12.078;2022-08-19T10:30:34;8.85;;;7.95;;
26082;SDS011;13848;49.018;12.078;2022-08-19T10:33:01;9.32;;;7.88;;
26082;SDS011;13848;49.018;12.078;2022-08-19T10:35:27;8.93;;;8.07;;
26082;SDS011;13848;49.018;12.078;2022-08-19T10:37:53;9.15;;;7.82;;
26082;SDS011;13848;49.018;12.078;2022-08-19T10:40:19;8.27;;;7.30;;
26082;SDS011;13848;49.018;12.078;2022-08-19T10:42:46;9.05;;;7.30;;
26082;SDS011;13848;49.018;12.078;2022-08-19T10:45:12;8.45;;;7.75;;
26082;SDS011;13848;49.018;12.078;2022-08-19T10:47:38;8.77;;;7.88;;
26082;SDS011;13848;49.018;12.078;2022-08-19T10:50:04;8.75;;;7.95;;
26082;SDS011;13848;49.018;12.078;2022-08-19T10:52:32;8.10;;;7.25;;
26082;SDS011;13848;49.018;12.078;2022-08-19T10:54:57;8.55;;;7.65;;
26082;SDS011;13848;49.018;12.078;2022-08-19T10:57:23;8.85;;;8.05;;
26082;SDS011;13848;49.018;12.078;2022-08-19T10:59:51;9.68;;;8.63;;
26082;SDS011;13848;49.018;12.078;2022-08-19T11:02:16;9.82;;;8.65;;
26082;SDS011;13848;49.018;12.078;2022-08-19T11:04:42;10.75;;;9.27;;
26082;SDS011;13848;49.018;12.078;2022-08-19T11:07:08;9.35;;;8.40;;
26082;SDS011;13848;49.018;12.078;2022-08-19T11:09:36;11.52;;;10.15;;
26082;SDS011;13848;49.018;12.078;2022-08-19T11:12:04;10.23;;;9.23;;
26082;SDS011;13848;49.018;12.078;2022-08-19T11:14:31;10.38;;;9.48;;
26082;SDS011;13848;49.018;12.078;2022-08-19T11:16:58;9.80;;;8.80;;
26082;SDS011;13848;49.018;12.078;2022-08-19T11:19:24;9.93;;;9.02;;
26082;SDS011;13848;49.018;12.078;2022-08-19T11:21:51;11.38;;;10.13;;
26082;SDS011;13848;49.018;12.078;2022-08-19T11:24:18;14.63;;;12.18;;
26082;SDS011;13848;49.018;12.078;2022-08-19T11:26:46;12.20;;;10.80;;
26082;SDS011;13848;49.018;12.078;2022-08-19T11:29:13;12.82;;;11.18;;
26082;SDS011;13848;49.018;12.078;2022-08-19T11:31:39;11.63;;;10.52;;
26082;SDS011;13848;49.018;12.078;2022-08-19T11:34:09;10.32;;;9.30;;
26082;SDS011;13848;49.018;12.078;2022-08-19T11:36:38;10.73;;;9.73;;
26082;SDS011;13848;49.018;12.078;2022-08-19T11:39:06;12.95;;;11.65;;
26082;SDS011;13848;49.018;12.078;2022-08-19T11:41:32;14.35;;;11.40;;
26082;SDS011;13848;49.018;12.078;2022-08-19T11:43:59;11.85;;;10.75;;
26082;SDS011;13848;49.018;12.078;2022-08-19T11:46:26;11.98;;;10.77;;
26082;SDS011;13848;49.018;12.078;2022-08-19T11:48:52;19.33;;;16.67;;
26082;SDS011;13848;49.018;12.078;2022-08-19T11:51:20;13.05;;;11.82;;
26082;SDS011;13848;49.018;12.078;2022-08-19T11:53:47;12.85;;;11.57;;
26082;SDS011;13848;49.018;12.078;2022-08-19T11:56:13;13.93;;;11.27;;
26082;SDS011;13848;49.018;12.078;2022-08-19T11:58:39;12.05;;;10.85;;
26082;SDS011;13848;49.018;12.078;2022-08-19T12:01:06;12.27;;;11.07;;
26082;SDS011;13848;49.018;12.078;2022-08-19T12:03:33;12.30;;;10.98;;
26082;SDS011;13848;49.018;12.078;2022-08-19T12:06:02;13.73;;;12.00;;
26082;SDS011;13848;49.018;12.078;2022-08-19T12:08:30;13.77;;;11.32;;
26082;SDS011;13848;49.018;12.078;2022-08-19T12:10:57;14.07;;;10.80;;
26082;SDS011;13848;49.018;12.078;2022-08-19T12:13:22;12.40;;;11.27;;
26082;SDS011;13848;49.018;12.078;2022-08-19T12:15:48;12.82;;;11.52;;
26082;SDS011;13848;49.018;12.078;2022-08-19T12:18:14;15.40;;;12.40;;
26082;SDS011;13848;49.018;12.078;2022-08-19T12:20:41;12.70;;;10.98;;
26082;SDS011;13848;49.018;12.078;2022-08-19T12:23:08;13.18;;;11.02;;
26082;SDS011;13848;49.018;12.078;2022-08-19T12:25:37;18.27;;;11.38;;
26082;SDS011;13848;49.018;12.078;2022-08-19T12:28:08;13.35;;;11.82;;
26082;SDS011;13848;49.018;12.078;2022-08-19T12:30:37;12.80;;;11.00;;
26082;SDS011;13848;49.018;12.078;2022-08-19T12:33:03;13.02;;;10.82;;
26082;SDS011;13848;49.018;12.078;2022-08-19T12:35:29;12.88;;;11.32;;
26082;SDS011;13848;49.018;12.078;2022-08-19T12:37:55;13.70;;;11.18;;
26082;SDS011;13848;49.018;12.078;2022-08-19T12:40:21;15.07;;;12.38;;
26082;SDS011;13848;49.018;12.078;2022-08-19T12:42:48;12.50;;;11.30;;
26082;SDS011;13848;49.018;12.078;2022-08-19T12:45:14;13.90;;;12.50;;
26082;SDS011;13848;49.018;12.078;2022-08-19T12:47:40;13.25;;;11.82;;
26082;SDS011;13848;49.018;12.078;2022-08-19T12:50:06;13.23;;;11.85;;
26082;SDS011;13848;49.018;12.078;2022-08-19T12:52:32;11.48;;;10.32;;
26082;SDS011;13848;49.018;12.078;2022-08-19T12:54:58;15.13;;;12.38;;
26082;SDS011;13848;49.018;12.078;2022-08-19T12:57:26;13.40;;;12.02;;
26082;SDS011;13848;49.018;12.078;2022-08-19T12:59:54;12.88;;;11.23;;
26082;SDS011;13848;49.018;12.078;2022-08-19T13:02:20;13.05;;;11.50;;
26082;SDS011;13848;49.018;12.078;2022-08-19T13:04:46;13.35;;;12.05;;
26082;SDS011;13848;49.018;12.078;2022-08-19T13:07:12;12.90;;;11.60;;
26082;SDS011;13848;49.018;12.078;2022-08-19T13:09:38;12.10;;;10.82;;
26082;SDS011;13848;49.018;12.078;2022-08-19T13:12:04;14.75;;;11.55;;
26082;SDS011;13848;49.018;12.078;2022-08-19T13:14:30;13.25;;;12.00;;
26082;SDS011;13848;49.018;12.078;2022-08-19T13:16:57;12.95;;;11.65;;
26082;SDS011;13848;49.018;12.078;2022-08-19T13:19:23;15.05;;;12.35;;
26082;SDS011;13848;49.018;12.078;2022-08-19T13:21:49;14.85;;;13.23;;
26082;SDS011;13848;49.018;12.078;2022-08-19T13:24:15;17.02;;;15.30;;
26082;SDS011;13848;49.018;12.078;2022-08-19T13:26:41;17.75;;;15.85;;
26082;SDS011;13848;49.018;12.078;2022-08-19T13:29:07;16.52;;;14.88;;
26082;SDS011;13848;49.018;12.078;2022-08-19T13:31:34;16.92;;;15.23;;
26082;SDS011;13848;49.018;12.078;2022-08-19T13:34:02;15.75;;;14.25;;
26082;SDS011;13848;49.018;12.078;2022-08-19T13:36:29;13.70;;;12.27;;
26082;SDS011;13848;49.018;12.078;2022-08-19T13:38:55;13.85;;;12.52;;
26082;SDS011;13848;49.018;12.078;2022-08-19T13:41:42;13.50;;;12.13;;
26082;SDS011;13848;49.018;12.078;2022-08-19T13:44:12;12.52;;;11.43;;
26082;SDS011;13848;49.018;12.078;2022-08-19T13:46:38;12.30;;;11.00;;
26082;SDS011;13848;49.018;12.078;2022-08-19T13:49:05;12.40;;;11.10;;
26082;SDS011;13848;49.018;12.078;2022-08-19T13:51:31;11.82;;;10.65;;
26082;SDS011;13848;49.018;12.078;2022-08-19T13:53:57;17.40;;;14.40;;
26082;SDS011;13848;49.018;12.078;2022-08-19T13:56:22;13.95;;;12.55;;
26082;SDS011;13848;49.018;12.078;2022-08-19T13:58:48;12.48;;;11.27;;
26082;SDS011;13848;49.018;12.078;2022-08-19T14:01:18;15.40;;;13.90;;
26082;SDS011;13848;49.018;12.078;2022-08-19T14:03:45;12.37;;;11.17;;
26082;SDS011;13848;49.018;12.078;2022-08-19T14:06:12;13.80;;;12.40;;
26082;SDS011;13848;49.018;12.078;2022-08-19T14:08:38;11.65;;;10.50;;
26082;SDS011;13848;49.018;12.078;2022-08-19T14:11:04;11.98;;;10.65;;
26082;SDS011;13848;49.018;12.078;2022-08-19T14:13:30;13.05;;;11.73;;